Time;durP1;ratioP1;P1;durP2;ratioP2;P2;SDS_P1;SDS_P2;PMS_P1;PMS_P2;Temp;Humidity;BMP_temperature;BMP_pressure;BME280_temperature;BME280_humidity;BME280_pressure;Samples;Min_cycle;Max_cycle;Signal;HPM_P1;HPM_P2
2021/08/07 00:02:02;;;;;;;8.52;5.22;;;16.20;99.90;;;;;;5076773;28;20123;-72
2021/08/07 00:04:27;;;;;;;13.23;5.28;;;16.20;99.90;;;;;;5076699;28;20119;-72
2021/08/07 00:06:53;;;;;;;17.17;5.35;;;16.10;99.90;;;;;;5076736;28;20068;-72
2021/08/07 00:09:19;;;;;;;9.93;5.07;;;16.10;99.90;;;;;;5076079;28;20037;-72
2021/08/07 00:11:45;;;;;;;10.75;5.50;;;16.10;99.90;;;;;;5076173;28;20499;-72
2021/08/07 00:14:11;;;;;;;13.20;5.82;;;16.10;99.90;;;;;;5076076;28;20037;-72
2021/08/07 00:16:37;;;;;;;10.35;4.82;;;16.10;99.90;;;;;;5076096;28;20074;-72
2021/08/07 00:19:03;;;;;;;9.32;5.03;;;16.10;99.90;;;;;;5075805;28;20528;-72
2021/08/07 00:21:28;;;;;;;8.65;4.60;;;16.10;99.90;;;;;;5074942;28;20033;-72
2021/08/07 00:23:54;;;;;;;14.10;4.95;;;16.10;99.90;;;;;;5076197;28;20037;-72
2021/08/07 00:26:19;;;;;;;11.90;5.25;;;16.10;99.90;;;;;;5076171;28;20063;-72
2021/08/07 00:28:45;;;;;;;8.68;4.88;;;16.10;99.90;;;;;;5075596;28;20040;-72
2021/08/07 00:31:11;;;;;;;11.73;5.70;;;16.10;99.90;;;;;;5075809;28;20377;-72
2021/08/07 00:33:37;;;;;;;10.55;5.03;;;16.20;99.90;;;;;;5075915;28;20036;-72
2021/08/07 00:36:02;;;;;;;8.75;5.28;;;16.10;99.90;;;;;;5075943;28;20083;-72
2021/08/07 00:38:28;;;;;;;8.63;5.03;;;16.10;99.90;;;;;;5075393;28;20119;-73
2021/08/07 00:40:54;;;;;;;11.85;5.60;;;16.10;99.90;;;;;;5076263;28;20032;-72
2021/08/07 00:43:19;;;;;;;9.27;5.80;;;16.10;99.90;;;;;;5076055;28;20040;-72
2021/08/07 00:45:45;;;;;;;13.05;5.82;;;16.10;99.90;;;;;;5075759;28;20043;-72
2021/08/07 00:48:12;;;;;;;13.95;6.38;;;16.00;99.90;;;;;;5075627;28;20043;-72
2021/08/07 00:50:38;;;;;;;11.23;6.47;;;16.10;99.90;;;;;;5073861;28;20044;-72
2021/08/07 00:53:04;;;;;;;12.88;5.82;;;16.00;99.90;;;;;;5075937;28;20401;-72
2021/08/07 00:55:31;;;;;;;12.95;6.95;;;16.00;99.90;;;;;;5075477;28;20044;-72
2021/08/07 00:57:57;;;;;;;12.32;6.15;;;16.10;99.90;;;;;;5074445;28;20040;-72
2021/08/07 01:00:23;;;;;;;13.25;6.47;;;16.10;99.90;;;;;;5075084;28;20469;-72
2021/08/07 01:03:34;;;;;;;10.52;6.50;;;16.10;99.90;;;;;;5074130;28;20040;-72
2021/08/07 01:06:37;;;;;;;10.02;6.60;;;16.10;99.90;;;;;;5073329;28;20079;-72
2021/08/07 01:09:26;;;;;;;10.85;5.90;;;16.10;99.90;;;;;;5055288;28;20057;-72
2021/08/07 01:12:06;;;;;;;14.65;6.80;;;16.10;99.90;;;;;;5074762;28;20040;-72
2021/08/07 01:14:37;;;;;;;9.38;6.25;;;16.20;99.90;;;;;;5075196;28;20048;-72
2021/08/07 01:17:06;;;;;;;8.15;6.18;;;16.20;99.90;;;;;;5075141;28;20033;-72
2021/08/07 01:19:57;;;;;;;7.70;5.93;;;16.20;99.90;;;;;;5074708;28;20040;-72
2021/08/07 01:22:32;;;;;;;14.35;6.47;;;16.20;99.90;;;;;;5074951;28;20112;-72
2021/08/07 01:25:03;;;;;;;8.73;6.07;;;16.20;99.90;;;;;;5074884;28;20536;-72
2021/08/07 01:27:35;;;;;;;8.73;6.28;;;16.30;99.90;;;;;;5075148;28;20052;-72
2021/08/07 01:30:01;;;;;;;10.73;6.40;;;16.30;99.90;;;;;;5074956;28;20094;-72
2021/08/07 01:32:31;;;;;;;8.32;6.05;;;16.30;99.90;;;;;;5074785;28;20046;-72
2021/08/07 01:34:58;;;;;;;10.32;5.85;;;16.30;99.90;;;;;;5074613;28;20075;-72
2021/08/07 01:37:24;;;;;;;8.38;6.32;;;16.30;99.90;;;;;;5074834;28;20527;-72
2021/08/07 01:39:54;;;;;;;10.50;5.97;;;16.30;99.90;;;;;;5074315;28;20043;-72
2021/08/07 01:42:22;;;;;;;8.55;5.65;;;16.30;99.90;;;;;;5074530;28;20068;-72
2021/08/07 01:44:47;;;;;;;9.38;6.20;;;16.30;99.90;;;;;;5074512;28;20036;-72
2021/08/07 01:47:38;;;;;;;8.73;5.80;;;16.20;99.90;;;;;;5074347;28;20451;-72
2021/08/07 01:50:12;;;;;;;10.88;5.55;;;16.20;99.90;;;;;;5074258;28;20036;-72
2021/08/07 01:52:42;;;;;;;11.55;6.15;;;16.20;99.90;;;;;;5074299;28;20037;-72
2021/08/07 01:55:22;;;;;;;11.23;5.03;;;16.30;99.90;;;;;;5074749;28;20040;-72
2021/08/07 01:57:58;;;;;;;7.97;4.78;;;16.30;99.90;;;;;;5074547;28;20037;-72
2021/08/07 02:00:24;;;;;;;8.43;4.32;;;16.30;99.90;;;;;;5073964;28;20039;-72
2021/08/07 02:02:52;;;;;;;9.25;3.50;;;16.30;99.90;;;;;;5074036;28;20123;-72
2021/08/07 02:05:19;;;;;;;7.70;4.00;;;16.30;99.90;;;;;;5074172;28;20094;-72
2021/08/07 02:07:49;;;;;;;9.52;3.70;;;16.30;99.90;;;;;;5074355;28;20035;-72
2021/08/07 02:10:15;;;;;;;7.85;3.75;;;16.20;99.90;;;;;;5073196;28;20040;-72
2021/08/07 02:12:42;;;;;;;10.10;3.22;;;16.20;99.90;;;;;;5073746;28;20095;-72
2021/08/07 02:15:08;;;;;;;8.38;3.15;;;16.20;99.90;;;;;;5074303;28;20074;-72
2021/08/07 02:17:34;;;;;;;6.85;3.15;;;16.20;99.90;;;;;;5074118;28;20070;-72
2021/08/07 02:20:00;;;;;;;7.15;2.83;;;16.20;99.90;;;;;;5073561;28;20036;-72
2021/08/07 02:22:27;;;;;;;7.05;2.90;;;16.10;99.90;;;;;;5074340;28;20043;-72
2021/08/07 02:24:53;;;;;;;7.38;2.80;;;16.10;99.90;;;;;;5073779;28;20460;-72
2021/08/07 02:27:19;;;;;;;5.20;3.10;;;16.10;99.90;;;;;;5073766;28;20115;-72
2021/08/07 02:29:45;;;;;;;5.68;3.10;;;16.00;99.90;;;;;;5073894;28;20047;-72
2021/08/07 02:32:12;;;;;;;7.60;2.70;;;16.00;99.90;;;;;;5073937;28;20037;-72
2021/08/07 02:34:38;;;;;;;5.28;2.78;;;16.00;99.90;;;;;;5074068;28;20453;-72
2021/08/07 02:37:05;;;;;;;9.18;2.90;;;16.00;99.90;;;;;;5074198;28;20114;-72
2021/08/07 02:39:32;;;;;;;8.57;2.97;;;15.90;99.90;;;;;;5073577;28;20044;-71
2021/08/07 02:41:58;;;;;;;3.80;2.47;;;16.00;99.90;;;;;;5073632;28;20123;-72
2021/08/07 02:44:24;;;;;;;6.15;2.70;;;15.90;99.90;;;;;;5073843;28;20496;-72
2021/08/07 02:46:51;;;;;;;6.45;2.70;;;15.90;99.90;;;;;;5073511;28;20065;-72
2021/08/07 02:49:18;;;;;;;7.10;3.38;;;15.90;99.90;;;;;;5073177;28;20036;-72
2021/08/07 02:51:44;;;;;;;6.53;3.67;;;15.90;99.90;;;;;;5072233;28;20049;-72
2021/08/07 02:54:10;;;;;;;6.78;2.67;;;15.90;99.90;;;;;;5073432;28;20044;-71
2021/08/07 02:56:36;;;;;;;6.22;2.42;;;15.90;99.90;;;;;;5073289;28;20044;-72
2021/08/07 02:59:02;;;;;;;10.10;2.58;;;15.90;99.90;;;;;;5071888;28;20039;-72
2021/08/07 03:01:28;;;;;;;9.18;2.88;;;15.90;99.90;;;;;;5073197;28;20041;-72
2021/08/07 03:03:53;;;;;;;7.07;2.47;;;15.80;99.90;;;;;;5073629;28;20036;-72
2021/08/07 03:06:19;;;;;;;6.75;2.40;;;15.80;99.90;;;;;;5072056;28;20086;-72
2021/08/07 03:08:45;;;;;;;3.45;2.17;;;15.70;99.90;;;;;;5073332;28;20041;-72
2021/08/07 03:11:12;;;;;;;9.18;3.00;;;15.70;99.90;;;;;;5071916;28;20064;-72
2021/08/07 03:13:38;;;;;;;5.78;2.35;;;15.70;99.90;;;;;;5073258;28;20036;-72
2021/08/07 03:16:04;;;;;;;3.83;2.25;;;15.70;99.90;;;;;;5073388;28;20101;-72
2021/08/07 03:18:29;;;;;;;6.78;2.90;;;15.60;99.90;;;;;;5072837;28;20111;-72
2021/08/07 03:20:57;;;;;;;7.15;2.30;;;15.60;99.90;;;;;;5074069;28;20037;-72
2021/08/07 03:23:23;;;;;;;8.00;2.67;;;15.60;99.90;;;;;;5077393;28;20063;-72
2021/08/07 03:25:49;;;;;;;8.25;2.47;;;15.60;99.90;;;;;;5077137;28;20037;-72
2021/08/07 03:28:15;;;;;;;5.53;2.38;;;15.50;99.90;;;;;;5076974;28;20048;-72
2021/08/07 03:30:41;;;;;;;7.50;3.13;;;15.50;99.90;;;;;;5076630;28;20039;-72
2021/08/07 03:33:07;;;;;;;5.70;2.55;;;15.50;99.90;;;;;;5077008;28;20400;-72
2021/08/07 03:35:33;;;;;;;6.20;3.03;;;15.50;99.90;;;;;;5076834;28;20044;-72
2021/08/07 03:37:58;;;;;;;6.20;2.80;;;15.50;99.90;;;;;;5076873;28;20377;-72
2021/08/07 03:40:24;;;;;;;6.30;2.50;;;15.50;99.90;;;;;;5076653;28;20465;-72
2021/08/07 03:42:50;;;;;;;7.65;2.53;;;15.50;99.90;;;;;;5077165;28;20044;-72
2021/08/07 03:45:17;;;;;;;4.28;3.25;;;15.40;99.90;;;;;;5077114;28;20475;-72
2021/08/07 03:47:48;;;;;;;8.48;2.70;;;15.40;99.90;;;;;;5076672;28;20119;-72
2021/08/07 03:50:14;;;;;;;9.18;4.35;;;15.40;99.90;;;;;;5076273;28;20124;-72
2021/08/07 03:52:40;;;;;;;8.18;2.80;;;15.40;99.90;;;;;;5076618;28;20047;-72
2021/08/07 03:55:07;;;;;;;6.32;2.50;;;15.30;99.90;;;;;;5076660;28;20040;-72
2021/08/07 03:57:33;;;;;;;6.20;2.47;;;15.30;99.90;;;;;;5076739;28;20090;-72
2021/08/07 03:59:58;;;;;;;7.93;2.60;;;15.30;99.90;;;;;;5076591;28;20098;-72
2021/08/07 04:02:24;;;;;;;6.15;2.97;;;15.30;99.90;;;;;;5076948;28;20044;-72
2021/08/07 04:04:50;;;;;;;6.38;2.67;;;15.20;99.90;;;;;;5076312;28;20041;-72
2021/08/07 04:07:15;;;;;;;6.60;2.70;;;15.20;99.90;;;;;;5076352;28;20037;-72
2021/08/07 04:09:41;;;;;;;10.10;3.15;;;15.20;99.90;;;;;;5076170;28;20036;-72
2021/08/07 04:12:07;;;;;;;8.57;3.78;;;15.20;99.90;;;;;;5076072;28;20040;-72
2021/08/07 04:14:38;;;;;;;8.57;2.55;;;15.20;99.90;;;;;;5075393;28;20400;-72
2021/08/07 04:17:04;;;;;;;6.68;2.88;;;15.20;99.90;;;;;;5075433;28;20040;-72
2021/08/07 04:19:30;;;;;;;6.85;2.75;;;15.20;99.90;;;;;;5074930;28;20142;-72
2021/08/07 04:21:55;;;;;;;8.05;3.08;;;15.10;99.90;;;;;;5074763;28;20074;-72
2021/08/07 04:24:21;;;;;;;7.05;3.53;;;15.10;99.90;;;;;;5075155;28;20040;-72
2021/08/07 04:26:47;;;;;;;9.43;3.10;;;15.10;99.90;;;;;;5074905;28;20085;-72
2021/08/07 04:29:12;;;;;;;5.57;2.85;;;15.10;99.90;;;;;;5074681;28;20403;-72
2021/08/07 04:31:38;;;;;;;5.95;3.08;;;15.10;99.90;;;;;;5074235;28;20544;-72
2021/08/07 04:34:03;;;;;;;10.20;3.22;;;15.00;99.90;;;;;;5074892;28;20554;-72
2021/08/07 04:36:29;;;;;;;7.72;3.20;;;15.00;99.90;;;;;;5074804;28;20461;-72
2021/08/07 04:38:55;;;;;;;9.05;3.08;;;15.00;99.90;;;;;;5074246;28;20036;-72
2021/08/07 04:41:20;;;;;;;10.05;3.60;;;15.00;99.90;;;;;;5074545;28;20037;-72
2021/08/07 04:43:46;;;;;;;5.72;2.88;;;15.00;99.90;;;;;;5074598;28;20473;-71
2021/08/07 04:46:11;;;;;;;8.90;3.72;;;15.00;99.90;;;;;;5074496;28;20488;-72
2021/08/07 04:48:37;;;;;;;8.15;3.80;;;15.00;99.90;;;;;;5074141;28;20036;-72
2021/08/07 04:51:03;;;;;;;6.97;3.03;;;15.10;99.90;;;;;;5073663;28;20072;-71
2021/08/07 04:53:29;;;;;;;7.47;3.70;;;15.10;99.90;;;;;;5074529;28;20070;-71
2021/08/07 04:55:54;;;;;;;10.85;3.00;;;15.10;99.90;;;;;;5074401;28;20386;-72
2021/08/07 04:58:20;;;;;;;9.32;3.70;;;15.20;99.90;;;;;;5074783;28;20504;-71
2021/08/07 05:00:46;;;;;;;7.85;3.22;;;15.20;99.90;;;;;;5074386;28;20408;-71
2021/08/07 05:03:11;;;;;;;8.52;3.97;;;15.40;99.90;;;;;;5074722;28;20043;-72
2021/08/07 05:05:37;;;;;;;5.95;3.47;;;15.50;99.90;;;;;;5074443;28;20041;-72
2021/08/07 05:08:03;;;;;;;10.63;3.38;;;15.60;99.90;;;;;;5074185;28;20048;-72
2021/08/07 05:10:29;;;;;;;7.38;3.25;;;15.70;99.90;;;;;;5073701;28;20044;-72
2021/08/07 05:12:54;;;;;;;7.20;4.03;;;15.80;99.90;;;;;;5037809;28;1041304;-71
2021/08/07 05:15:20;;;;;;;8.02;2.90;;;15.90;99.90;;;;;;5075231;28;20328;-71
2021/08/07 05:17:46;;;;;;;8.15;3.40;;;16.10;99.90;;;;;;5075293;28;20047;-71
2021/08/07 05:20:11;;;;;;;10.23;3.35;;;16.20;99.90;;;;;;5074752;28;20112;-71
2021/08/07 05:22:37;;;;;;;10.43;3.28;;;16.40;99.90;;;;;;5074861;28;20072;-71
2021/08/07 05:25:05;;;;;;;9.48;3.45;;;16.60;99.90;;;;;;5074844;28;20041;-71
2021/08/07 05:27:31;;;;;;;8.77;3.63;;;16.80;99.90;;;;;;5074681;28;20433;-71
2021/08/07 05:29:56;;;;;;;12.48;3.67;;;17.00;99.90;;;;;;5074461;28;20032;-71
2021/08/07 05:32:22;;;;;;;9.45;3.78;;;17.20;99.90;;;;;;5073413;28;20037;-71
2021/08/07 05:34:47;;;;;;;8.23;3.72;;;17.20;99.90;;;;;;5074689;28;20055;-71
2021/08/07 05:37:13;;;;;;;10.07;3.35;;;17.10;99.90;;;;;;5074647;28;20089;-71
2021/08/07 05:39:39;;;;;;;7.85;3.15;;;17.10;99.90;;;;;;5074526;28;20033;-72
2021/08/07 05:42:04;;;;;;;7.38;3.17;;;17.10;99.90;;;;;;5075280;28;20472;-71
2021/08/07 05:44:30;;;;;;;8.60;3.17;;;17.30;99.90;;;;;;5073658;28;20040;-72
2021/08/07 05:46:56;;;;;;;9.15;3.25;;;17.40;99.90;;;;;;5075002;28;20045;-71
2021/08/07 05:49:21;;;;;;;10.00;3.92;;;17.20;99.90;;;;;;5074369;28;20037;-72
2021/08/07 05:51:47;;;;;;;7.28;3.40;;;17.10;99.90;;;;;;5074168;28;20047;-72
2021/08/07 05:54:13;;;;;;;12.15;3.10;;;17.00;99.90;;;;;;5074418;28;20477;-71
2021/08/07 05:56:39;;;;;;;10.13;3.28;;;16.90;99.90;;;;;;5074327;28;20052;-72
2021/08/07 05:59:05;;;;;;;8.10;2.95;;;16.90;99.90;;;;;;5074222;28;20491;-72
2021/08/07 06:01:30;;;;;;;9.30;3.63;;;17.10;99.90;;;;;;5074386;28;20094;-72
2021/08/07 06:03:56;;;;;;;5.78;3.25;;;17.10;99.90;;;;;;5074370;28;20047;-72
2021/08/07 06:06:21;;;;;;;7.28;3.08;;;17.10;99.90;;;;;;5074092;28;20045;-71
2021/08/07 06:08:47;;;;;;;9.75;3.17;;;17.00;99.90;;;;;;5074061;28;20041;-71
2021/08/07 06:11:13;;;;;;;10.02;3.08;;;17.00;99.90;;;;;;5074189;28;20060;-71
2021/08/07 06:13:38;;;;;;;8.98;3.15;;;16.90;99.90;;;;;;5073833;28;20037;-71
2021/08/07 06:16:04;;;;;;;7.35;3.17;;;17.10;99.90;;;;;;5073782;28;20039;-72
2021/08/07 06:18:30;;;;;;;12.05;3.30;;;17.10;99.90;;;;;;5073532;28;20048;-71
2021/08/07 06:20:55;;;;;;;6.95;3.17;;;17.10;99.90;;;;;;5072888;28;20036;-72
2021/08/07 06:23:21;;;;;;;10.35;2.80;;;17.10;99.90;;;;;;5074084;28;20040;-72
2021/08/07 06:25:47;;;;;;;7.25;3.05;;;17.30;99.90;;;;;;5073701;28;20048;-72
2021/08/07 06:28:13;;;;;;;12.73;2.85;;;17.70;99.90;;;;;;5073353;28;20200;-72
2021/08/07 06:30:43;;;;;;;7.32;2.90;;;18.20;99.90;;;;;;5073329;28;20036;-72
2021/08/07 06:33:09;;;;;;;9.23;3.10;;;18.60;99.90;;;;;;5073778;28;20036;-72
2021/08/07 06:35:35;;;;;;;7.05;2.60;;;18.50;99.90;;;;;;5073811;28;20454;-72
2021/08/07 06:38:01;;;;;;;7.03;2.85;;;18.50;99.90;;;;;;5073635;28;20032;-72
2021/08/07 06:40:27;;;;;;;5.95;2.55;;;18.40;99.90;;;;;;5073401;28;20392;-72
2021/08/07 06:42:52;;;;;;;7.57;3.35;;;18.40;99.90;;;;;;5073655;28;20036;-72
2021/08/07 06:45:18;;;;;;;8.82;2.63;;;18.50;99.90;;;;;;5073556;28;20492;-71
2021/08/07 06:47:44;;;;;;;9.73;2.88;;;18.50;99.90;;;;;;5073419;28;20076;-71
2021/08/07 06:50:10;;;;;;;5.57;2.85;;;18.40;99.90;;;;;;5073311;28;20036;-71
2021/08/07 06:52:35;;;;;;;12.55;2.80;;;18.30;99.90;;;;;;5073746;28;20036;-71
2021/08/07 06:55:03;;;;;;;8.45;3.38;;;18.20;99.90;;;;;;5073748;28;20056;-71
2021/08/07 06:57:28;;;;;;;7.68;2.40;;;18.10;99.90;;;;;;5073621;28;20037;-71
2021/08/07 06:59:54;;;;;;;9.25;2.75;;;18.00;99.90;;;;;;5072999;28;20086;-70
2021/08/07 07:02:20;;;;;;;7.22;2.80;;;17.80;99.90;;;;;;5073181;28;20086;-71
2021/08/07 07:04:46;;;;;;;6.75;2.40;;;17.80;99.90;;;;;;5073424;28;20090;-71
2021/08/07 07:07:12;;;;;;;9.07;2.95;;;17.70;99.90;;;;;;5073441;28;20044;-71
2021/08/07 07:09:38;;;;;;;10.93;2.95;;;17.70;99.90;;;;;;5072975;28;20036;-71
2021/08/07 07:12:04;;;;;;;6.28;2.80;;;17.60;99.90;;;;;;5073090;28;20040;-71
2021/08/07 07:14:30;;;;;;;8.57;2.83;;;17.70;99.90;;;;;;5073076;28;20107;-71
2021/08/07 07:16:56;;;;;;;10.88;2.92;;;17.70;99.90;;;;;;5073766;28;20496;-71
2021/08/07 07:19:25;;;;;;;7.10;2.80;;;17.70;99.90;;;;;;5073261;28;20033;-71
2021/08/07 07:21:51;;;;;;;8.57;2.80;;;17.80;99.90;;;;;;5071918;28;20477;-71
2021/08/07 07:24:16;;;;;;;12.48;2.67;;;17.80;99.90;;;;;;5073099;28;20484;-71
2021/08/07 07:26:42;;;;;;;9.10;2.97;;;17.90;99.90;;;;;;5073420;28;20068;-71
2021/08/07 07:29:08;;;;;;;8.00;2.75;;;17.90;99.90;;;;;;5073061;28;20102;-71
2021/08/07 07:31:34;;;;;;;5.35;2.20;;;17.90;99.90;;;;;;5072986;28;20162;-71
2021/08/07 07:33:59;;;;;;;6.90;2.70;;;18.00;99.90;;;;;;5073320;28;20040;-71
2021/08/07 07:36:25;;;;;;;5.80;2.35;;;18.20;99.90;;;;;;5073053;28;20041;-71
2021/08/07 07:38:51;;;;;;;13.15;2.63;;;18.40;99.90;;;;;;5072648;28;20041;-71
2021/08/07 07:41:17;;;;;;;6.63;2.50;;;18.50;99.90;;;;;;5073236;28;20037;-71
2021/08/07 07:43:43;;;;;;;6.70;2.80;;;18.80;99.90;;;;;;5072840;28;20094;-71
2021/08/07 07:46:09;;;;;;;6.90;2.40;;;19.40;99.90;;;;;;5073099;28;20041;-71
2021/08/07 07:48:35;;;;;;;10.88;2.92;;;19.80;99.90;;;;;;5072787;28;20036;-72
2021/08/07 07:51:01;;;;;;;6.90;2.13;;;20.10;99.90;;;;;;5073088;28;20043;-71
2021/08/07 07:53:27;;;;;;;10.90;2.95;;;20.10;99.90;;;;;;5072825;28;20047;-71
2021/08/07 07:55:53;;;;;;;6.57;2.25;;;20.40;99.90;;;;;;5073020;28;20051;-71
2021/08/07 07:58:19;;;;;;;8.70;2.30;;;20.70;99.90;;;;;;5072875;28;20044;-71
2021/08/07 08:00:45;;;;;;;9.70;2.47;;;20.80;99.90;;;;;;5072302;28;20404;-71
2021/08/07 08:03:10;;;;;;;5.80;2.30;;;20.50;99.90;;;;;;5072684;28;20115;-71
2021/08/07 08:05:36;;;;;;;9.00;2.25;;;20.50;99.90;;;;;;5072856;28;20036;-71
2021/08/07 08:08:02;;;;;;;4.50;1.80;;;20.40;99.90;;;;;;5075132;28;20067;-71
2021/08/07 08:10:28;;;;;;;7.22;2.22;;;20.00;99.90;;;;;;5075898;28;20066;-71
2021/08/07 08:12:54;;;;;;;9.40;1.85;;;19.80;99.90;;;;;;5076729;28;20093;-71
2021/08/07 08:15:19;;;;;;;7.05;2.85;;;19.80;99.90;;;;;;5076747;28;20044;-71
2021/08/07 08:17:45;;;;;;;7.95;2.25;;;20.00;99.90;;;;;;5076447;28;20036;-71
2021/08/07 08:20:11;;;;;;;5.78;1.85;;;20.00;99.90;;;;;;5076164;28;20041;-71
2021/08/07 08:22:38;;;;;;;9.00;1.83;;;20.30;99.90;;;;;;5075126;28;20501;-71
2021/08/07 08:25:06;;;;;;;8.27;2.05;;;20.60;99.90;;;;;;5076374;28;20511;-70
2021/08/07 08:27:33;;;;;;;5.80;1.60;;;20.80;99.90;;;;;;5075935;28;20121;-71
2021/08/07 08:29:59;;;;;;;8.50;2.10;;;21.10;99.90;;;;;;5075817;28;20185;-72
2021/08/07 08:32:24;;;;;;;5.22;1.98;;;21.40;99.90;;;;;;5075882;28;20539;-71
2021/08/07 08:34:50;;;;;;;5.25;1.50;;;21.60;99.90;;;;;;5076195;28;20048;-71
2021/08/07 08:37:16;;;;;;;3.97;2.00;;;21.70;99.90;;;;;;5075845;28;20111;-71
2021/08/07 08:39:41;;;;;;;4.80;1.90;;;21.80;99.90;;;;;;5075586;28;20051;-71
2021/08/07 08:42:07;;;;;;;7.72;2.40;;;21.90;99.90;;;;;;5075822;28;20037;-72
2021/08/07 08:44:37;;;;;;;5.55;1.58;;;21.90;99.90;;;;;;5075815;28;20457;-71
2021/08/07 08:47:04;;;;;;;5.82;1.80;;;21.80;99.90;;;;;;5076001;28;20044;-72
2021/08/07 08:49:30;;;;;;;4.95;1.52;;;21.90;99.90;;;;;;5075345;28;20542;-72
2021/08/07 08:52:00;;;;;;;5.40;1.48;;;21.90;99.90;;;;;;5075604;28;20032;-72
2021/08/07 08:54:26;;;;;;;7.82;1.77;;;22.30;99.90;;;;;;5075910;28;20118;-72
2021/08/07 08:56:54;;;;;;;4.57;1.60;;;22.40;99.90;;;;;;5075468;28;20053;-72
2021/08/07 08:59:23;;;;;;;5.20;1.30;;;22.70;99.90;;;;;;5075332;28;20106;-72
2021/08/07 09:01:50;;;;;;;3.38;1.35;;;22.90;99.90;;;;;;5075673;28;20040;-71
2021/08/07 09:04:16;;;;;;;3.92;1.17;;;23.00;99.90;;;;;;5075745;28;20461;-71
2021/08/07 09:06:44;;;;;;;3.33;1.08;;;23.20;99.90;;;;;;5074656;28;20040;-71
2021/08/07 09:09:11;;;;;;;4.97;1.10;;;23.30;99.90;;;;;;5074916;28;20374;-71
2021/08/07 09:11:52;;;;;;;4.53;1.40;;;23.30;98.40;;;;;;5075135;28;20128;-71
2021/08/07 09:14:26;;;;;;;5.28;1.63;;;23.40;98.90;;;;;;5075478;28;20036;-72
2021/08/07 09:16:58;;;;;;;3.67;1.40;;;23.40;99.80;;;;;;5075586;28;20036;-72
2021/08/07 09:19:24;;;;;;;4.43;1.05;;;23.60;96.80;;;;;;5073482;28;20048;-71
2021/08/07 09:22:15;;;;;;;5.90;1.00;;;23.80;98.70;;;;;;5075146;28;20047;-71
2021/08/07 09:25:02;;;;;;;3.17;1.00;;;23.80;97.30;;;;;;5074337;28;20052;-71
2021/08/07 09:27:33;;;;;;;3.83;1.10;;;23.80;96.70;;;;;;5075349;28;20037;-71
2021/08/07 09:30:00;;;;;;;1.95;0.90;;;24.00;97.10;;;;;;5074463;28;20082;-72
2021/08/07 09:32:25;;;;;;;4.88;1.00;;;23.90;97.00;;;;;;5074733;28;20059;-72
2021/08/07 09:35:08;;;;;;;3.17;0.85;;;23.70;97.00;;;;;;5075020;28;20040;-72
2021/08/07 09:37:34;;;;;;;3.00;0.88;;;23.60;97.20;;;;;;5075258;28;20500;-71
2021/08/07 09:40:00;;;;;;;4.80;1.10;;;23.40;98.20;;;;;;5074872;28;20124;-71
2021/08/07 09:42:28;;;;;;;4.05;1.55;;;23.50;98.50;;;;;;5074597;28;20115;-70
2021/08/07 09:45:08;;;;;;;6.15;1.85;;;23.30;98.50;;;;;;5074638;28;20048;-72
2021/08/07 09:47:40;;;;;;;6.15;1.10;;;23.30;99.40;;;;;;5074640;28;20043;-73
2021/08/07 09:50:23;;;;;;;2.60;0.90;;;23.20;99.30;;;;;;5074481;28;20120;-72
2021/08/07 09:52:49;;;;;;;4.35;0.90;;;23.30;96.40;;;;;;5074386;28;20037;-72
2021/08/07 09:55:15;;;;;;;2.65;0.80;;;23.30;95.00;;;;;;5074423;28;20053;-72
2021/08/07 09:57:42;;;;;;;4.30;0.77;;;23.30;98.60;;;;;;5074294;28;20451;-72
2021/08/07 10:00:08;;;;;;;1.65;0.75;;;23.20;96.90;;;;;;5074268;28;20048;-72
2021/08/07 10:02:38;;;;;;;4.32;0.93;;;23.20;98.40;;;;;;5074064;28;20086;-73
2021/08/07 10:05:11;;;;;;;4.10;0.80;;;23.20;98.10;;;;;;5074061;28;20044;-72
2021/08/07 10:07:37;;;;;;;2.30;0.80;;;23.00;98.30;;;;;;5072940;28;20040;-72
2021/08/07 10:10:19;;;;;;;2.88;1.05;;;22.80;97.80;;;;;;5073758;28;20041;-72
2021/08/07 10:12:46;;;;;;;2.63;0.82;;;22.60;99.30;;;;;;5074006;28;20033;-72
2021/08/07 10:15:11;;;;;;;4.95;0.90;;;22.70;97.80;;;;;;5074116;28;20503;-72
2021/08/07 10:17:38;;;;;;;5.25;0.80;;;22.90;96.30;;;;;;5073938;28;20120;-72
2021/08/07 10:20:05;;;;;;;1.88;0.30;;;23.00;98.20;;;;;;5073766;28;20040;-72
2021/08/07 10:22:31;;;;;;;1.75;0.60;;;23.20;95.20;;;;;;5073791;28;20146;-72
2021/08/07 10:25:02;;;;;;;1.83;0.57;;;23.10;93.60;;;;;;5074069;28;20472;-72
2021/08/07 10:27:30;;;;;;;1.40;0.47;;;23.30;97.20;;;;;;5073816;28;20048;-71
2021/08/07 10:29:59;;;;;;;2.20;0.55;;;23.20;97.20;;;;;;5073078;28;20040;-70
2021/08/07 10:32:25;;;;;;;3.08;0.63;;;23.50;94.00;;;;;;5073563;28;20036;-70
2021/08/07 10:34:52;;;;;;;3.00;0.70;;;23.60;92.70;;;;;;5073799;28;20068;-69
2021/08/07 10:37:18;;;;;;;4.28;0.95;;;23.50;91.10;;;;;;5073532;28;20438;-69
2021/08/07 10:39:43;;;;;;;3.17;0.80;;;23.40;94.30;;;;;;5073738;28;20040;-69
2021/08/07 10:42:11;;;;;;;4.72;1.08;;;23.20;95.30;;;;;;5074275;28;20385;-69
2021/08/07 10:44:38;;;;;;;3.22;0.70;;;23.30;95.40;;;;;;5073334;28;20063;-69
2021/08/07 10:47:04;;;;;;;1.63;0.90;;;23.20;95.50;;;;;;5073594;28;20037;-70
2021/08/07 10:49:40;;;;;;;1.92;0.70;;;23.20;96.10;;;;;;5073488;28;20090;-70
2021/08/07 10:52:21;;;;;;;3.58;0.80;;;23.10;95.90;;;;;;5073555;28;20111;-70
2021/08/07 10:54:48;;;;;;;3.05;0.77;;;23.30;95.40;;;;;;5073793;28;20073;-70
2021/08/07 10:57:41;;;;;;;1.58;0.60;;;23.10;93.20;;;;;;5073844;28;20036;-70
2021/08/07 11:00:16;;;;;;;2.55;0.55;;;23.20;91.70;;;;;;5072763;28;20048;-69
2021/08/07 11:02:42;;;;;;;2.33;0.63;;;23.30;95.80;;;;;;5071992;28;20128;-69
2021/08/07 11:05:09;;;;;;;4.35;0.77;;;23.30;92.80;;;;;;5073222;28;20105;-69
2021/08/07 11:07:36;;;;;;;2.47;0.57;;;23.40;93.60;;;;;;5073266;28;20043;-69
2021/08/07 11:10:06;;;;;;;1.95;0.80;;;23.50;94.90;;;;;;5073001;28;20044;-70
2021/08/07 11:12:34;;;;;;;2.97;0.70;;;23.40;94.90;;;;;;5073279;28;20079;-69
2021/08/07 11:15:03;;;;;;;2.45;0.70;;;23.40;94.30;;;;;;5073321;28;20048;-69
2021/08/07 11:17:33;;;;;;;3.75;0.88;;;23.30;91.50;;;;;;5073353;28;20119;-69
2021/08/07 11:20:12;;;;;;;1.70;0.80;;;23.20;91.70;;;;;;5072814;28;20039;-69
2021/08/07 11:22:40;;;;;;;3.38;0.98;;;23.30;96.50;;;;;;5073114;28;20036;-69
2021/08/07 11:25:17;;;;;;;3.35;1.08;;;23.40;96.80;;;;;;5073405;28;20071;-69
2021/08/07 11:27:59;;;;;;;3.03;0.90;;;23.30;93.60;;;;;;5073152;28;20087;-69
2021/08/07 11:30:35;;;;;;;3.58;1.23;;;23.20;96.10;;;;;;5073366;28;20393;-69
2021/08/07 11:33:01;;;;;;;4.35;1.00;;;23.30;95.60;;;;;;5073634;28;20049;-69
2021/08/07 11:35:38;;;;;;;2.80;0.70;;;23.50;93.10;;;;;;5073391;28;20063;-69
2021/08/07 11:38:13;;;;;;;2.15;1.00;;;23.70;92.20;;;;;;5073492;28;20534;-69
2021/08/07 11:40:47;;;;;;;3.10;1.00;;;23.90;92.50;;;;;;5072877;28;20119;-69
2021/08/07 11:43:24;;;;;;;4.30;0.90;;;23.90;91.70;;;;;;5075874;28;20107;-69
2021/08/07 11:45:55;;;;;;;1.60;0.90;;;23.80;93.40;;;;;;5076930;28;20123;-69
2021/08/07 11:48:23;;;;;;;2.72;1.00;;;23.60;91.30;;;;;;5076974;28;20150;-69
2021/08/07 11:50:49;;;;;;;3.22;0.85;;;23.60;92.40;;;;;;5076272;28;20094;-69
2021/08/07 11:53:18;;;;;;;3.10;0.80;;;23.80;93.50;;;;;;5076718;28;20036;-69
2021/08/07 11:55:44;;;;;;;2.53;0.70;;;23.80;92.20;;;;;;5076572;28;20508;-70
2021/08/07 11:58:15;;;;;;;2.97;0.80;;;23.70;91.90;;;;;;5076823;28;20044;-69
2021/08/07 12:00:41;;;;;;;2.33;1.17;;;23.70;91.10;;;;;;5076201;28;20459;-70
2021/08/07 12:03:09;;;;;;;3.58;0.70;;;23.70;89.40;;;;;;5076503;28;20033;-69
2021/08/07 12:05:36;;;;;;;2.08;0.80;;;23.80;84.90;;;;;;5076324;28;20443;-69
2021/08/07 12:08:09;;;;;;;3.97;1.00;;;23.80;92.80;;;;;;5076339;28;20045;-69
2021/08/07 12:10:47;;;;;;;2.05;0.70;;;23.90;93.50;;;;;;5076260;28;20048;-69
2021/08/07 12:13:23;;;;;;;2.03;0.75;;;24.00;90.60;;;;;;5076424;28;20036;-69
2021/08/07 12:15:53;;;;;;;2.17;0.82;;;23.80;84.30;;;;;;5076355;28;20048;-69
2021/08/07 12:18:19;;;;;;;1.67;0.70;;;23.80;87.10;;;;;;5075913;28;20496;-69
2021/08/07 12:20:48;;;;;;;3.20;0.90;;;23.60;90.50;;;;;;5076168;28;20048;-69
2021/08/07 12:23:14;;;;;;;2.13;0.57;;;23.40;90.40;;;;;;5075939;28;20071;-69
2021/08/07 12:25:41;;;;;;;1.98;0.77;;;23.20;94.70;;;;;;5075989;28;20068;-69
2021/08/07 12:28:14;;;;;;;3.35;0.80;;;23.20;94.10;;;;;;5076187;28;20139;-70
2021/08/07 12:30:56;;;;;;;2.95;0.98;;;23.30;95.20;;;;;;5075912;28;20040;-69
2021/08/07 12:33:24;;;;;;;2.92;1.10;;;23.50;92.80;;;;;;5076020;28;20085;-69
2021/08/07 12:35:51;;;;;;;2.10;0.90;;;23.50;90.30;;;;;;5076268;28;20048;-69
2021/08/07 12:38:19;;;;;;;2.75;1.00;;;23.30;89.00;;;;;;5076135;28;20469;-69
2021/08/07 12:40:48;;;;;;;3.20;0.93;;;23.20;94.60;;;;;;5075314;28;20067;-69
2021/08/07 12:43:14;;;;;;;1.17;0.60;;;23.00;90.80;;;;;;5075796;28;20089;-69
2021/08/07 12:45:40;;;;;;;4.75;0.93;;;23.00;91.10;;;;;;5075954;28;20499;-69
2021/08/07 12:48:06;;;;;;;2.55;0.90;;;22.90;90.90;;;;;;5075804;28;20041;-69
2021/08/07 12:50:32;;;;;;;2.70;0.90;;;22.70;96.40;;;;;;5075258;28;20071;-69